Time;durP1;ratioP1;P1;durP2;ratioP2;P2;SDS_P1;SDS_P2;PMS_P1;PMS_P2;Temp;Humidity;BMP_temperature;BMP_pressure;BME280_temperature;BME280_humidity;BME280_pressure;Samples;Min_cycle;Max_cycle;Signal;HPM_P1;HPM_P2
2021/11/29 00:00:57;;;;;;;;;17.33;17.33;9.00;77.70;;;;;;5073325;28;8861;-69
2021/11/29 00:03:23;;;;;;;;;17.00;16.67;8.90;78.20;;;;;;5073645;28;8953;-68
2021/11/29 00:05:48;;;;;;;;;14.67;14.67;8.80;78.80;;;;;;5074127;28;8815;-67
2021/11/29 00:08:14;;;;;;;;;11.33;11.33;8.80;79.10;;;;;;5074279;28;8780;-67
2021/11/29 00:10:41;;;;;;;;;15.00;15.00;9.00;78.30;;;;;;5074132;28;9461;-68
2021/11/29 00:13:07;;;;;;;;;9.00;9.00;9.20;76.80;;;;;;5072974;28;9423;-69
2021/11/29 00:15:33;;;;;;;;;16.00;14.33;9.40;75.50;;;;;;5074178;28;9451;-68
2021/11/29 00:18:01;;;;;;;;;12.00;11.67;9.40;75.30;;;;;;5073836;28;8797;-68
2021/11/29 00:20:28;;;;;;;;;14.67;14.67;9.40;75.50;;;;;;5073746;28;8752;-67
2021/11/29 00:22:54;;;;;;;;;15.33;15.33;9.40;75.10;;;;;;5073798;28;8737;-69
2021/11/29 00:25:20;;;;;;;;;21.67;21.67;9.30;75.70;;;;;;5074419;28;8749;-69
2021/11/29 00:27:46;;;;;;;;;16.33;16.33;9.20;75.80;;;;;;5074553;28;8776;-68
2021/11/29 00:30:13;;;;;;;;;14.33;14.33;9.10;76.70;;;;;;5074295;28;8780;-67
2021/11/29 00:32:40;;;;;;;;;14.67;14.67;9.40;75.80;;;;;;5061468;28;8783;-67
2021/11/29 00:35:06;;;;;;;;;13.33;13.33;9.20;76.50;;;;;;5053224;28;8791;-68
2021/11/29 00:37:33;;;;;;;;;16.33;16.33;9.10;76.50;;;;;;5056532;28;8821;-68
2021/11/29 00:39:58;;;;;;;;;7.67;7.67;9.00;76.70;;;;;;5058657;28;8781;-69
2021/11/29 00:42:24;;;;;;;;;15.33;15.33;8.90;77.60;;;;;;5058656;28;8870;-67
2021/11/29 00:44:50;;;;;;;;;16.00;16.00;8.90;77.20;;;;;;5058475;28;9491;-70
2021/11/29 00:47:16;;;;;;;;;16.67;16.67;9.00;76.70;;;;;;5057288;28;8814;-69
2021/11/29 00:49:42;;;;;;;;;17.67;17.33;8.90;77.30;;;;;;5058091;28;8774;-67
2021/11/29 00:52:08;;;;;;;;;11.33;11.33;9.00;76.50;;;;;;5057931;28;8775;-67
2021/11/29 00:54:34;;;;;;;;;15.00;15.00;9.20;75.90;;;;;;5058098;28;8770;-68
2021/11/29 00:57:00;;;;;;;;;15.00;14.33;9.20;75.20;;;;;;5057977;28;8787;-67
2021/11/29 00:59:26;;;;;;;;;11.00;11.00;9.40;74.60;;;;;;5058033;28;8855;-68
2021/11/29 01:01:52;;;;;;;;;3.00;3.00;9.30;75.00;;;;;;5058040;28;8767;-68
2021/11/29 01:04:18;;;;;;;;;11.33;11.33;9.40;74.40;;;;;;5057915;28;8767;-68
2021/11/29 01:06:44;;;;;;;;;15.67;15.67;9.40;74.40;;;;;;5057831;28;8803;-70
2021/11/29 01:09:09;;;;;;;;;14.00;14.00;9.50;73.60;;;;;;5058031;28;9499;-68
2021/11/29 01:11:35;;;;;;;;;15.33;15.33;9.40;73.70;;;;;;5058074;28;8778;-67
2021/11/29 01:14:01;;;;;;;;;11.67;11.67;9.50;73.10;;;;;;5057756;28;9421;-71
2021/11/29 01:16:27;;;;;;;;;8.00;8.00;9.30;73.40;;;;;;5058010;28;8895;-68
2021/11/29 01:18:53;;;;;;;;;9.00;9.00;9.00;74.90;;;;;;5057855;28;8807;-68
2021/11/29 01:21:18;;;;;;;;;7.33;7.33;9.50;74.00;;;;;;5057651;28;8767;-67
2021/11/29 01:23:45;;;;;;;;;11.33;11.33;9.50;73.50;;;;;;5057890;28;8775;-68
2021/11/29 01:26:11;;;;;;;;;14.00;14.00;9.80;72.90;;;;;;5057486;28;8790;-68
2021/11/29 01:28:38;;;;;;;;;13.00;13.00;9.80;72.20;;;;;;5057711;28;9433;-67
2021/11/29 01:31:05;;;;;;;;;13.00;13.00;9.60;73.30;;;;;;5057406;28;8777;-69
2021/11/29 01:33:30;;;;;;;;;15.33;15.33;9.70;72.60;;;;;;5057515;28;8755;-69
2021/11/29 01:35:56;;;;;;;;;16.00;16.00;9.70;72.60;;;;;;5057709;28;9459;-69
2021/11/29 01:38:22;;;;;;;;;32.25;31.25;9.20;74.70;;;;;;5057209;28;8806;-69
2021/11/29 01:40:48;;;;;;;;;21.75;21.75;9.00;76.40;;;;;;5057318;28;8836;-69
2021/11/29 01:43:16;;;;;;;;;16.67;16.67;9.10;76.00;;;;;;5057332;28;8751;-68
2021/11/29 01:45:45;;;;;;;;;12.67;12.67;9.00;75.90;;;;;;5057272;28;8879;-68
2021/11/29 01:48:12;;;;;;;;;9.00;9.00;9.00;76.00;;;;;;5057380;28;8824;-68
2021/11/29 01:50:41;;;;;;;;;11.67;11.67;9.00;75.90;;;;;;5057193;28;8763;-70
2021/11/29 01:53:08;;;;;;;;;14.67;14.67;9.10;75.60;;;;;;5057416;28;8759;-68
2021/11/29 01:55:36;;;;;;;;;14.00;14.00;9.10;74.90;;;;;;5057317;28;8759;-69
2021/11/29 01:58:03;;;;;;;;;11.00;11.00;8.90;76.90;;;;;;5057193;28;8833;-68
2021/11/29 02:00:32;;;;;;;;;15.67;15.67;9.00;76.00;;;;;;5056888;28;8844;-69
2021/11/29 02:02:58;;;;;;;;;12.33;12.33;9.00;75.60;;;;;;5056931;28;8767;-67
2021/11/29 02:05:25;;;;;;;;;16.00;15.00;9.30;75.00;;;;;;5056903;28;8913;-68
2021/11/29 02:07:51;;;;;;;;;16.00;16.00;9.70;72.90;;;;;;5056886;28;8790;-69
2021/11/29 02:10:21;;;;;;;;;14.00;14.00;9.90;72.00;;;;;;5057054;28;8771;-68
2021/11/29 02:12:47;;;;;;;;;15.67;15.67;9.80;71.60;;;;;;5057037;28;8797;-68
2021/11/29 02:15:14;;;;;;;;;16.00;16.00;9.90;71.30;;;;;;5056529;28;8783;-68
2021/11/29 02:17:41;;;;;;;;;19.67;19.67;10.30;69.60;;;;;;5056529;28;8799;-68
2021/11/29 02:20:08;;;;;;;;;12.33;12.33;10.00;70.20;;;;;;5056573;28;8767;-67
2021/11/29 02:22:35;;;;;;;;;14.00;14.00;9.60;71.80;;;;;;5056401;28;8770;-68
2021/11/29 02:25:01;;;;;;;;;19.00;19.00;9.20;74.00;;;;;;5056474;28;8856;-68
2021/11/29 02:27:27;;;;;;;;;19.00;19.00;9.30;73.00;;;;;;5056468;28;8839;-67
2021/11/29 02:29:58;;;;;;;;;14.00;14.00;9.60;72.40;;;;;;5056625;28;8775;-68
2021/11/29 02:32:24;;;;;;;;;15.00;15.00;10.00;70.20;;;;;;5056383;28;8771;-68
2021/11/29 02:34:50;;;;;;;;;14.00;14.00;10.30;69.20;;;;;;5056262;28;8767;-67
2021/11/29 02:37:16;;;;;;;;;14.00;14.00;10.40;68.30;;;;;;5056085;28;8817;-69
2021/11/29 02:39:42;;;;;;;;;10.67;10.67;10.50;68.10;;;;;;5056117;28;9464;-69
2021/11/29 02:42:12;;;;;;;;;14.00;14.00;10.40;68.50;;;;;;5056371;28;9438;-68
2021/11/29 02:44:39;;;;;;;;;16.33;16.33;10.20;68.60;;;;;;5056089;28;8832;-69
2021/11/29 02:47:06;;;;;;;;;13.33;13.33;10.20;68.00;;;;;;5056148;28;8791;-68
2021/11/29 02:49:32;;;;;;;;;24.00;24.00;9.80;69.40;;;;;;5056220;28;8789;-69
2021/11/29 02:52:01;;;;;;;;;18.67;18.67;9.30;71.70;;;;;;5055882;28;8791;-68
2021/11/29 02:54:33;;;;;;;;;17.00;17.00;9.30;72.30;;;;;;5056131;28;8755;-68
2021/11/29 02:57:03;;;;;;;;;22.67;22.67;9.50;72.20;;;;;;5055940;28;8794;-67
2021/11/29 02:59:32;;;;;;;;;20.33;19.00;9.60;70.50;;;;;;5055501;28;8857;-68
2021/11/29 03:02:02;;;;;;;;;24.00;24.00;9.30;71.90;;;;;;5055964;28;8763;-68
2021/11/29 03:04:30;;;;;;;;;26.75;26.75;9.40;71.60;;;;;;5056219;28;8767;-68
2021/11/29 03:06:57;;;;;;;;;26.25;26.25;9.60;70.90;;;;;;5055428;28;8815;-67
2021/11/29 03:09:23;;;;;;;;;32.00;32.00;9.60;70.70;;;;;;5055560;28;8771;-68
2021/11/29 03:11:49;;;;;;;;;30.50;30.50;10.00;70.00;;;;;;5055574;28;8858;-67
2021/11/29 03:14:17;;;;;;;;;39.50;37.50;9.70;70.60;;;;;;5055746;28;8778;-68
2021/11/29 03:16:43;;;;;;;;;30.25;30.25;9.60;70.90;;;;;;5055523;28;8826;-68
2021/11/29 03:19:08;;;;;;;;;28.00;28.00;9.70;70.90;;;;;;5055359;28;8762;-67
2021/11/29 03:21:34;;;;;;;;;26.00;26.00;9.80;70.10;;;;;;5055304;28;8775;-67
2021/11/29 03:24:04;;;;;;;;;28.25;28.25;10.10;69.40;;;;;;5055561;28;9503;-68
2021/11/29 03:26:30;;;;;;;;;25.25;25.25;10.30;68.10;;;;;;5055269;28;8874;-68
2021/11/29 03:29:05;;;;;;;;;22.75;22.75;10.60;67.30;;;;;;5055338;28;8771;-67
2021/11/29 03:31:32;;;;;;;;;38.25;37.25;10.60;67.00;;;;;;5055395;28;8766;-67
2021/11/29 03:34:00;;;;;;;;;36.75;36.00;10.60;67.00;;;;;;5055354;28;8763;-67
2021/11/29 03:36:30;;;;;;;;;36.00;35.75;10.50;67.30;;;;;;5055055;28;8893;-68
2021/11/29 03:38:58;;;;;;;;;37.50;36.50;10.60;67.10;;;;;;5055177;28;8791;-69
2021/11/29 03:41:25;;;;;;;;;26.00;26.00;10.60;67.10;;;;;;5054934;28;8799;-69
2021/11/29 03:43:51;;;;;;;;;19.00;19.00;10.50;67.00;;;;;;5055261;28;8898;-67
2021/11/29 03:46:17;;;;;;;;;14.33;14.33;10.10;68.60;;;;;;5054952;28;9445;-68
2021/11/29 03:48:43;;;;;;;;;13.00;13.00;9.90;69.50;;;;;;5054888;28;8794;-67
2021/11/29 03:51:09;;;;;;;;;13.67;13.67;9.90;70.00;;;;;;5054857;28;8755;-68
2021/11/29 03:53:35;;;;;;;;;26.50;26.50;9.70;70.70;;;;;;5054736;28;8856;-68
2021/11/29 03:56:00;;;;;;;;;28.00;28.00;9.40;71.50;;;;;;5054710;28;8771;-68
2021/11/29 03:58:26;;;;;;;;;37.25;36.00;9.30;72.50;;;;;;5054612;28;8917;-67
2021/11/29 04:00:53;;;;;;;;;39.75;38.50;9.30;72.30;;;;;;5054633;28;8775;-67
2021/11/29 04:03:19;;;;;;;;;27.25;25.50;9.30;72.10;;;;;;5054837;28;8801;-67
2021/11/29 04:05:44;;;;;;;;;31.75;31.75;9.30;72.40;;;;;;5054373;28;9425;-67
2021/11/29 04:08:10;;;;;;;;;30.50;30.50;9.40;71.80;;;;;;5054770;28;8790;-68
2021/11/29 04:10:36;;;;;;;;;29.25;29.25;9.70;70.80;;;;;;5054284;28;9339;-68
2021/11/29 04:13:03;;;;;;;;;36.50;35.50;9.70;70.20;;;;;;5053905;28;8763;-67
2021/11/29 04:15:29;;;;;;;;;32.50;32.50;9.80;70.10;;;;;;5054204;28;8786;-67
2021/11/29 04:17:55;;;;;;;;;34.25;33.75;9.80;70.10;;;;;;5054588;28;8787;-67
2021/11/29 04:20:21;;;;;;;;;33.25;33.25;10.00;68.70;;;;;;5054379;28;8748;-68
2021/11/29 04:22:48;;;;;;;;;35.00;33.50;10.10;68.80;;;;;;5054537;28;8820;-68
2021/11/29 04:25:20;;;;;;;;;37.50;36.00;10.20;68.60;;;;;;5054583;28;8767;-68
2021/11/29 04:27:48;;;;;;;;;22.75;22.75;10.20;68.10;;;;;;5053354;28;8852;-68
2021/11/29 04:30:19;;;;;;;;;25.25;25.25;10.60;66.80;;;;;;5054294;28;8763;-68
2021/11/29 04:32:50;;;;;;;;;31.75;31.75;10.90;65.70;;;;;;5054572;28;8755;-67
2021/11/29 04:35:17;;;;;;;;;29.00;29.00;10.50;67.20;;;;;;5054343;28;8848;-68
2021/11/29 04:37:43;;;;;;;;;26.25;24.75;10.30;67.30;;;;;;5054389;28;8841;-68
2021/11/29 04:40:10;;;;;;;;;28.75;28.75;10.40;67.50;;;;;;5054395;28;8767;-68
2021/11/29 04:42:36;;;;;;;;;28.75;28.75;10.30;67.60;;;;;;5054157;28;8767;-68
2021/11/29 04:45:04;;;;;;;;;33.50;33.50;10.00;68.20;;;;;;5054338;28;8879;-68
2021/11/29 04:47:30;;;;;;;;;31.00;31.00;9.90;68.90;;;;;;5054488;28;8833;-68
2021/11/29 04:49:56;;;;;;;;;28.75;28.75;10.20;67.90;;;;;;5054114;28;8789;-68
2021/11/29 04:52:22;;;;;;;;;31.00;31.00;10.30;67.60;;;;;;5054009;28;8767;-68
2021/11/29 04:54:47;;;;;;;;;25.25;25.25;10.20;68.20;;;;;;5054054;28;8805;-68
2021/11/29 04:57:13;;;;;;;;;22.00;22.00;9.80;69.40;;;;;;5053934;28;8783;-68
2021/11/29 04:59:39;;;;;;;;;25.50;25.50;9.60;69.90;;;;;;5053745;28;8771;-68
2021/11/29 05:02:05;;;;;;;;;22.00;22.00;9.40;70.90;;;;;;5053945;28;8775;-68
2021/11/29 05:04:31;;;;;;;;;24.25;24.25;9.60;70.30;;;;;;5059593;28;8815;-68
2021/11/29 05:06:58;;;;;;;;;24.50;24.50;9.60;70.40;;;;;;5070162;28;8820;-68
2021/11/29 05:09:23;;;;;;;;;53.00;46.00;9.80;69.60;;;;;;5067643;28;8833;-68
2021/11/29 05:11:49;;;;;;;;;47.25;43.00;10.00;69.10;;;;;;5059956;28;8787;-67
2021/11/29 05:14:15;;;;;;;;;54.25;47.25;10.20;68.00;;;;;;5072114;28;8894;-64
2021/11/29 05:16:43;;;;;;;;;59.75;51.50;10.30;67.90;;;;;;5067364;28;8792;-67
2021/11/29 05:19:09;;;;;;;;;59.25;51.00;10.20;68.00;;;;;;5070870;28;8918;-64
2021/11/29 05:21:35;;;;;;;;;64.00;54.25;10.10;68.20;;;;;;5062674;28;8891;-67
2021/11/29 05:24:02;;;;;;;;;66.00;55.75;10.20;67.80;;;;;;5066455;28;8817;-66
2021/11/29 05:26:28;;;;;;;;;66.50;56.00;10.20;68.00;;;;;;5069208;28;8781;-66
2021/11/29 05:28:56;;;;;;;;;68.25;56.75;10.20;67.70;;;;;;5062770;28;8807;-66
2021/11/29 05:31:23;;;;;;;;;73.25;60.75;10.50;66.80;;;;;;5069054;28;8795;-66
2021/11/29 05:33:49;;;;;;;;;71.50;58.75;10.40;66.90;;;;;;5057611;28;8775;-66
2021/11/29 05:36:16;;;;;;;;;73.25;60.50;10.30;67.20;;;;;;5058671;28;8863;-67
2021/11/29 05:38:42;;;;;;;;;74.00;61.00;10.10;68.20;;;;;;5061060;28;8811;-66
2021/11/29 05:41:08;;;;;;;;;75.75;63.00;10.20;67.20;;;;;;5071660;28;8868;-66
2021/11/29 05:43:34;;;;;;;;;70.75;59.25;9.80;68.00;;;;;;5065842;28;9425;-67
2021/11/29 05:46:00;;;;;;;;;67.25;56.50;9.60;69.00;;;;;;5069594;28;8831;-68
2021/11/29 05:48:29;;;;;;;;;57.25;48.75;9.30;70.10;;;;;;5060792;28;8826;-69
2021/11/29 05:50:56;;;;;;;;;69.75;57.00;9.50;70.00;;;;;;5066057;28;8842;-68
2021/11/29 05:53:22;;;;;;;;;65.25;54.75;9.50;70.20;;;;;;5057002;28;8759;-67
2021/11/29 05:55:48;;;;;;;;;57.25;49.50;9.60;70.80;;;;;;5066047;28;8791;-67
2021/11/29 05:58:13;;;;;;;;;68.25;57.00;9.70;69.10;;;;;;5074372;28;8890;-67
2021/11/29 06:00:39;;;;;;;;;76.00;61.75;9.90;68.30;;;;;;5060914;28;8765;-67
2021/11/29 06:03:05;;;;;;;;;75.25;61.75;9.60;68.90;;;;;;5067492;28;8788;-66
2021/11/29 06:05:32;;;;;;;;;77.75;64.25;9.90;68.30;;;;;;5066150;28;8806;-70
2021/11/29 06:07:57;;;;;;;;;74.25;60.25;10.00;67.70;;;;;;5057067;28;8920;-71
2021/11/29 06:10:23;;;;;;;;;81.25;65.25;10.00;68.70;;;;;;5056207;28;8755;-72
2021/11/29 06:12:49;;;;;;;;;99.50;98.50;10.20;67.20;;;;;;5056892;28;8767;-68
2021/11/29 06:15:16;;;;;;;;;105.75;102.50;9.80;68.00;;;;;;5056467;28;9578;-64
2021/11/29 06:17:43;;;;;;;;;107.25;103.50;9.90;68.20;;;;;;5056355;28;8856;-67
2021/11/29 06:20:11;;;;;;;;;107.75;104.75;10.20;66.90;;;;;;5056754;28;8806;-67
2021/11/29 06:22:37;;;;;;;;;124.00;119.25;9.90;68.30;;;;;;5056617;28;9453;-67
2021/11/29 06:25:04;;;;;;;;;107.00;104.75;10.00;67.30;;;;;;5056292;28;8914;-66
2021/11/29 06:27:30;;;;;;;;;141.00;130.25;9.80;68.00;;;;;;5056279;28;8813;-67
2021/11/29 06:29:56;;;;;;;;;157.50;149.00;9.70;68.20;;;;;;5056027;28;8759;-67
2021/11/29 06:32:21;;;;;;;;;157.00;151.50;9.70;68.00;;;;;;5056116;28;9377;-67
2021/11/29 06:34:47;;;;;;;;;166.50;160.00;9.80;67.70;;;;;;5054721;28;8775;-71
2021/11/29 06:37:14;;;;;;;;;180.25;173.50;9.90;67.40;;;;;;5075934;28;8896;-71
2021/11/29 06:39:40;;;;;;;;;159.75;154.25;9.80;67.40;;;;;;5075890;28;8768;-72
2021/11/29 06:42:07;;;;;;;;;181.75;174.50;10.00;67.10;;;;;;5076068;28;9403;-71
2021/11/29 06:44:34;;;;;;;;;179.50;171.75;10.10;66.50;;;;;;5075611;28;9543;-71
2021/11/29 06:47:00;;;;;;;;;172.75;167.00;9.80;67.00;;;;;;5075958;28;8788;-71
2021/11/29 06:49:26;;;;;;;;;171.50;165.50;9.90;67.20;;;;;;5075842;28;8757;-72
2021/11/29 06:51:52;;;;;;;;;196.25;188.50;9.70;67.90;;;;;;5075930;28;8865;-71
2021/11/29 06:54:20;;;;;;;;;176.25;171.25;9.90;67.20;;;;;;5075994;28;8764;-71
2021/11/29 06:56:47;;;;;;;;;185.75;177.00;10.10;66.70;;;;;;5075841;28;9414;-71
2021/11/29 06:59:13;;;;;;;;;148.25;139.50;10.20;66.10;;;;;;5075032;28;8834;-70
2021/11/29 07:01:38;;;;;;;;;135.50;135.25;10.30;65.80;;;;;;5075819;28;8776;-71
2021/11/29 07:04:04;;;;;;;;;178.00;167.50;10.40;65.40;;;;;;5075494;28;8765;-71
2021/11/29 07:06:31;;;;;;;;;183.25;177.75;10.40;65.40;;;;;;5075168;28;8812;-71
2021/11/29 07:08:57;;;;;;;;;174.50;166.50;10.60;64.90;;;;;;5075572;28;8784;-71
2021/11/29 07:11:23;;;;;;;;;186.00;176.50;10.10;66.60;;;;;;5075672;28;8792;-71
2021/11/29 07:13:49;;;;;;;;;189.75;183.75;10.00;67.40;;;;;;5073871;28;8810;-71
2021/11/29 07:16:14;;;;;;;;;185.25;176.25;10.10;67.50;;;;;;5075346;28;8828;-70
2021/11/29 07:18:41;;;;;;;;;193.00;185.75;10.00;67.10;;;;;;5075518;28;8800;-70
2021/11/29 07:21:09;;;;;;;;;189.00;175.75;10.10;66.30;;;;;;5075584;28;8787;-71
2021/11/29 07:23:36;;;;;;;;;186.50;181.75;10.20;65.90;;;;;;5075068;28;8776;-72
2021/11/29 07:26:01;;;;;;;;;156.00;147.00;10.40;65.70;;;;;;5075229;28;8768;-71
2021/11/29 07:28:27;;;;;;;;;103.75;102.00;10.20;66.10;;;;;;5074854;28;8857;-72
2021/11/29 07:30:53;;;;;;;;;75.50;62.25;10.10;66.50;;;;;;5075355;28;9545;-70
2021/11/29 07:33:19;;;;;;;;;62.25;50.75;9.50;68.60;;;;;;5074976;28;8768;-70
2021/11/29 07:35:46;;;;;;;;;43.00;40.50;8.80;71.30;;;;;;5074017;28;8858;-70
2021/11/29 07:38:12;;;;;;;;;36.75;35.50;8.20;73.60;;;;;;5075123;28;8853;-70
2021/11/29 07:40:39;;;;;;;;;35.25;34.50;7.80;75.90;;;;;;5075294;28;9454;-70
2021/11/29 07:43:07;;;;;;;;;39.00;38.00;7.70;76.90;;;;;;5074458;28;9461;-70
2021/11/29 07:45:35;;;;;;;;;58.75;50.50;8.00;76.00;;;;;;5074612;28;8784;-70
2021/11/29 07:48:01;;;;;;;;;58.75;50.00;8.50;74.00;;;;;;5074600;28;8772;-69
2021/11/29 07:50:27;;;;;;;;;56.75;49.00;8.80;72.90;;;;;;5074973;28;8794;-69
2021/11/29 07:52:53;;;;;;;;;58.50;50.00;8.50;72.90;;;;;;5074588;28;8772;-70
2021/11/29 07:55:25;;;;;;;;;64.00;54.50;8.70;72.60;;;;;;5074861;28;8764;-70
2021/11/29 07:57:53;;;;;;;;;69.50;58.00;8.90;71.70;;;;;;5074767;28;8807;-69
2021/11/29 08:00:22;;;;;;;;;66.25;55.00;8.70;72.90;;;;;;5074550;28;8756;-69
2021/11/29 08:02:56;;;;;;;;;60.75;51.75;9.00;71.40;;;;;;5074413;28;8753;-70
2021/11/29 08:05:23;;;;;;;;;72.50;59.50;8.90;71.90;;;;;;5074253;28;8792;-70
2021/11/29 08:07:51;;;;;;;;;71.25;59.00;8.60;73.40;;;;;;5074542;28;8748;-70
2021/11/29 08:10:18;;;;;;;;;71.25;58.50;8.90;73.10;;;;;;5074449;28;8833;-70
2021/11/29 08:12:44;;;;;;;;;64.25;53.25;9.10;72.30;;;;;;5074383;28;8768;-70
2021/11/29 08:15:10;;;;;;;;;56.75;49.00;9.50;71.40;;;;;;5074307;28;8791;-70
2021/11/29 08:17:36;;;;;;;;;55.50;47.50;9.50;71.70;;;;;;5074549;28;9462;-70
2021/11/29 08:20:04;;;;;;;;;55.00;48.00;9.40;71.30;;;;;;5074619;28;8753;-70
2021/11/29 08:22:30;;;;;;;;;54.50;46.75;9.40;71.40;;;;;;5074489;28;8780;-70
2021/11/29 08:24:56;;;;;;;;;60.75;50.25;9.10;72.40;;;;;;5074339;28;8768;-70
2021/11/29 08:27:21;;;;;;;;;47.25;41.75;8.90;73.70;;;;;;5074257;28;8761;-71
2021/11/29 08:29:47;;;;;;;;;57.25;48.00;8.70;75.00;;;;;;5074420;28;8799;-70
2021/11/29 08:32:15;;;;;;;;;51.25;45.00;8.80;74.60;;;;;;5074451;28;8803;-71
2021/11/29 08:34:41;;;;;;;;;55.75;48.75;9.30;72.80;;;;;;5074514;28;8791;-70
2021/11/29 08:37:08;;;;;;;;;58.50;49.00;9.50;70.90;;;;;;5073088;28;8784;-69
2021/11/29 08:39:34;;;;;;;;;63.00;52.00;9.20;72.50;;;;;;5074381;28;8791;-70
2021/11/29 08:42:00;;;;;;;;;56.50;48.50;9.20;72.20;;;;;;5074388;28;8803;-70
2021/11/29 08:44:26;;;;;;;;;49.50;43.50;9.50;71.40;;;;;;5074397;28;8791;-70
2021/11/29 08:46:52;;;;;;;;;46.25;41.25;9.50;71.30;;;;;;5073947;28;8788;-69
2021/11/29 08:49:19;;;;;;;;;46.25;40.00;9.20;72.10;;;;;;5074316;28;8780;-69
2021/11/29 08:51:46;;;;;;;;;38.75;37.25;8.70;73.60;;;;;;5074174;28;8805;-69
2021/11/29 08:54:14;;;;;;;;;39.25;37.50;8.90;73.80;;;;;;5074248;28;9535;-69
2021/11/29 08:56:40;;;;;;;;;51.25;44.00;9.20;72.30;;;;;;5074195;28;8859;-70
2021/11/29 08:59:06;;;;;;;;;52.00;45.00;9.00;72.80;;;;;;5077321;28;8950;-70
2021/11/29 09:01:34;;;;;;;;;54.25;46.50;9.20;72.10;;;;;;5077993;28;8780;-69
2021/11/29 09:04:02;;;;;;;;;48.75;42.75;9.40;72.10;;;;;;5077959;28;8802;-69
2021/11/29 09:06:28;;;;;;;;;43.00;39.75;9.50;71.70;;;;;;5077669;28;8812;-70
2021/11/29 09:08:54;;;;;;;;;37.50;36.00;9.50;71.50;;;;;;5078087;28;8792;-70
2021/11/29 09:11:20;;;;;;;;;46.75;41.25;9.70;70.00;;;;;;5077839;28;8879;-70
2021/11/29 09:13:46;;;;;;;;;34.75;34.75;9.90;69.30;;;;;;5077730;28;8788;-70
2021/11/29 09:16:14;;;;;;;;;41.25;38.75;9.80;69.60;;;;;;5077973;28;8812;-70
2021/11/29 09:18:41;;;;;;;;;31.25;29.50;9.80;68.80;;;;;;5077875;28;8804;-70
2021/11/29 09:21:08;;;;;;;;;29.25;29.25;9.60;69.40;;;;;;5077905;28;9658;-70
2021/11/29 09:23:34;;;;;;;;;25.25;25.25;9.20;70.10;;;;;;5077637;28;8773;-70
2021/11/29 09:26:00;;;;;;;;;21.00;21.00;9.00;70.30;;;;;;5077572;28;8776;-70
2021/11/29 09:28:26;;;;;;;;;25.25;25.25;8.60;72.00;;;;;;5077480;28;8768;-69
2021/11/29 09:30:52;;;;;;;;;24.33;24.33;8.80;72.30;;;;;;5077329;28;8779;-70
2021/11/29 09:33:19;;;;;;;;;19.33;19.33;8.50;72.70;;;;;;5077422;28;8776;-70
2021/11/29 09:35:45;;;;;;;;;24.00;24.00;8.50;73.50;;;;;;5077606;28;9426;-70
2021/11/29 09:38:11;;;;;;;;;23.67;23.67;8.70;73.20;;;;;;5077376;28;8785;-69
2021/11/29 09:40:39;;;;;;;;;24.67;23.00;8.80;72.70;;;;;;5077599;28;8760;-70
2021/11/29 09:43:09;;;;;;;;;26.75;26.75;8.60;72.80;;;;;;5077486;28;8883;-69
2021/11/29 09:45:35;;;;;;;;;25.25;24.50;8.30;74.80;;;;;;5077311;28;8800;-70
2021/11/29 09:48:02;;;;;;;;;25.00;25.00;8.30;74.90;;;;;;5077094;28;8781;-69
2021/11/29 09:50:30;;;;;;;;;19.67;19.67;8.20;74.80;;;;;;5077328;28;8786;-69
2021/11/29 09:52:56;;;;;;;;;24.75;24.25;8.40;74.00;;;;;;5077389;28;8803;-69
2021/11/29 09:55:25;;;;;;;;;20.00;19.67;8.20;74.70;;;;;;5077030;28;8749;-69
2021/11/29 09:57:53;;;;;;;;;30.25;30.25;8.00;75.80;;;;;;5077163;28;8816;-69
2021/11/29 10:00:38;;;;;;;;;26.00;26.00;8.00;76.50;;;;;;5076964;28;8740;-70
2021/11/29 10:03:05;;;;;;;;;25.25;25.25;8.30;75.10;;;;;;5076938;28;8855;-70
2021/11/29 10:05:33;;;;;;;;;25.50;24.50;8.00;75.90;;;;;;5076805;28;9467;-69
2021/11/29 10:07:58;;;;;;;;;29.75;29.75;7.90;76.00;;;;;;5076764;28;8768;-69
2021/11/29 10:10:31;;;;;;;;;28.75;28.75;7.90;76.50;;;;;;5075191;28;8784;-70
2021/11/29 10:13:04;;;;;;;;;24.50;24.50;8.10;75.80;;;;;;5076468;28;8776;-69
2021/11/29 10:15:37;;;;;;;;;24.00;24.00;8.40;75.30;;;;;;5076872;28;9462;-69
2021/11/29 10:18:17;;;;;;;;;25.50;25.50;8.30;75.00;;;;;;5076535;28;8828;-70
2021/11/29 10:20:54;;;;;;;;;25.25;25.25;8.10;76.10;;;;;;5076818;28;9438;-69
2021/11/29 10:23:37;;;;;;;;;29.50;28.75;7.90;76.90;;;;;;5076462;28;8764;-69
2021/11/29 10:26:24;;;;;;;;;28.75;28.75;8.00;76.70;;;;;;5076398;28;8765;-70
2021/11/29 10:29:08;;;;;;;;;25.75;24.50;8.10;75.90;;;;;;5076619;28;8777;-70
2021/11/29 10:31:50;;;;;;;;;23.50;22.75;8.00;76.30;;;;;;5076636;28;8849;-71
2021/11/29 10:34:23;;;;;;;;;23.50;23.50;7.90;76.10;;;;;;5076568;28;8765;-70
2021/11/29 10:36:51;;;;;;;;;30.25;30.25;7.90;76.20;;;;;;5076113;28;8871;-69
2021/11/29 10:39:22;;;;;;;;;23.75;23.75;7.90;76.70;;;;;;5076068;28;9616;-69
2021/11/29 10:41:51;;;;;;;;;30.00;30.00;7.70;77.30;;;;;;5076265;28;8814;-69
2021/11/29 10:44:22;;;;;;;;;29.00;29.00;8.10;77.50;;;;;;5076147;28;8772;-70
2021/11/29 10:46:51;;;;;;;;;29.25;29.25;8.40;74.70;;;;;;5076278;28;9564;-70
2021/11/29 10:49:19;;;;;;;;;43.25;41.00;8.50;74.60;;;;;;5075752;28;8776;-70
2021/11/29 10:51:50;;;;;;;;;48.00;43.50;8.60;73.70;;;;;;5075955;28;8860;-70
2021/11/29 10:54:22;;;;;;;;;43.00;39.75;8.70;73.10;;;;;;5075908;28;9493;-70
2021/11/29 10:56:50;;;;;;;;;35.00;34.75;8.60;73.40;;;;;;5075793;28;8776;-70
2021/11/29 10:59:19;;;;;;;;;43.50;39.00;9.00;72.00;;;;;;5075835;28;8820;-70
2021/11/29 11:01:47;;;;;;;;;33.75;33.50;9.10;71.40;;;;;;5075787;28;8784;-70
2021/11/29 11:04:24;;;;;;;;;42.25;40.00;8.80;70.40;;;;;;5075658;28;8800;-70
2021/11/29 11:06:53;;;;;;;;;38.75;37.75;9.40;69.60;;;;;;5075558;28;9457;-70
2021/11/29 11:09:23;;;;;;;;;41.25;39.00;9.20;69.00;;;;;;5075832;28;8783;-70
2021/11/29 11:11:54;;;;;;;;;40.75;38.50;9.10;69.10;;;;;;5075547;28;8945;-70
2021/11/29 11:14:53;;;;;;;;;32.75;32.00;9.30;68.70;;;;;;5075528;28;8780;-70
2021/11/29 11:17:30;;;;;;;;;37.25;37.00;9.00;68.80;;;;;;5073035;28;8911;-70
2021/11/29 11:20:09;;;;;;;;;45.00;40.50;9.20;69.00;;;;;;5073032;28;8950;-71
2021/11/29 11:22:41;;;;;;;;;37.50;35.25;9.50;68.10;;;;;;5073189;28;8854;-71
2021/11/29 11:25:09;;;;;;;;;37.75;36.25;9.70;66.60;;;;;;5073189;28;8897;-71
2021/11/29 11:27:51;;;;;;;;;32.25;32.25;9.90;66.60;;;;;;5072921;28;8796;-71
2021/11/29 11:30:19;;;;;;;;;47.50;42.50;10.30;66.50;;;;;;5073070;28;8770;-70
2021/11/29 11:32:55;;;;;;;;;41.00;38.25;10.30;65.60;;;;;;5072956;28;8777;-70
2021/11/29 11:35:29;;;;;;;;;38.75;36.50;10.10;65.90;;;;;;5072922;28;8959;-70
2021/11/29 11:37:57;;;;;;;;;42.00;38.75;9.50;67.50;;;;;;5072943;28;8870;-70
2021/11/29 11:40:29;;;;;;;;;34.50;34.00;9.40;67.80;;;;;;5072856;28;8793;-71
2021/11/29 11:42:56;;;;;;;;;41.00;38.00;9.20;67.70;;;;;;5072680;28;8770;-70
2021/11/29 11:45:25;;;;;;;;;34.25;34.00;9.20;67.80;;;;;;5072599;28;8766;-71
2021/11/29 11:47:52;;;;;;;;;43.00;39.50;9.20;67.40;;;;;;5072760;28;8766;-70
2021/11/29 11:50:22;;;;;;;;;34.25;33.75;9.10;68.40;;;;;;5072613;28;8792;-70
2021/11/29 11:52:48;;;;;;;;;42.50;38.75;9.50;66.90;;;;;;5072923;28;8857;-71
2021/11/29 11:55:18;;;;;;;;;44.25;40.25;9.40;66.90;;;;;;5074732;28;8768;-71
2021/11/29 11:57:48;;;;;;;;;36.75;36.00;9.10;68.40;;;;;;5074975;28;8788;-71
2021/11/29 12:00:29;;;;;;;;;39.50;37.25;9.30;67.60;;;;;;5074846;28;8764;-70
2021/11/29 12:03:07;;;;;;;;;45.25;41.00;9.10;67.00;;;;;;5071143;28;8772;-70
2021/11/29 12:05:47;;;;;;;;;47.75;41.75;9.50;66.10;;;;;;5053888;28;9542;-70
2021/11/29 12:08:32;;;;;;;;;36.50;35.75;9.40;67.20;;;;;;5068893;28;8797;-70
2021/11/29 12:11:03;;;;;;;;;43.75;38.25;9.80;65.10;;;;;;5073133;28;8828;-69
2021/11/29 12:13:42;;;;;;;;;18.00;18.00;9.30;66.30;;;;;;5073470;28;8773;-69
2021/11/29 12:16:10;;;;;;;;;41.75;38.00;8.90;68.10;;;;;;5072462;28;8788;-69
2021/11/29 12:18:45;;;;;;;;;30.75;30.75;8.60;68.10;;;;;;5068066;28;8772;-69
2021/11/29 12:21:13;;;;;;;;;36.00;35.75;8.10;69.40;;;;;;5073084;28;8753;-69
2021/11/29 12:23:50;;;;;;;;;50.00;44.00;7.70;70.50;;;;;;5073311;28;8748;-70
2021/11/29 12:26:16;;;;;;;;;43.50;40.25;7.70;71.30;;;;;;5070417;28;8753;-70
2021/11/29 12:28:44;;;;;;;;;47.00;41.00;8.10;69.70;;;;;;5073236;28;8756;-69
2021/11/29 12:31:34;;;;;;;;;45.00;41.00;8.00;69.90;;;;;;5074060;28;8775;-69
2021/11/29 12:34:04;;;;;;;;;32.00;32.00;8.00;69.20;;;;;;5071272;28;9443;-68
2021/11/29 12:36:59;;;;;;;;;54.00;45.75;8.20;68.90;;;;;;5071969;28;8868;-69
2021/11/29 12:39:43;;;;;;;;;52.25;44.50;8.30;68.60;;;;;;5071167;28;8784;-69
2021/11/29 12:42:26;;;;;;;;;51.75;45.00;8.40;68.60;;;;;;5072096;28;8757;-69
2021/11/29 12:45:01;;;;;;;;;55.75;47.75;9.20;66.30;;;;;;5070619;28;8768;-69
2021/11/29 12:47:29;;;;;;;;;55.50;47.75;9.50;65.10;;;;;;5057303;28;8818;-69